createdAt,value
2018-12-03T00:00:20.147Z,12.10
2018-12-03T00:02:48.608Z,12.00
2018-12-03T00:05:16.808Z,11.90
2018-12-03T00:07:44.951Z,11.90
2018-12-03T00:10:13.267Z,11.90
2018-12-03T00:12:41.415Z,11.90
2018-12-03T00:15:09.568Z,11.80
2018-12-03T00:17:37.893Z,11.80
2018-12-03T00:20:08.180Z,11.80
2018-12-03T00:22:36.337Z,11.70
2018-12-03T00:25:05.569Z,11.80
2018-12-03T00:27:33.717Z,11.80
2018-12-03T00:30:01.855Z,11.80
2018-12-03T00:32:31.104Z,11.70
2018-12-03T00:34:59.267Z,11.70
2018-12-03T00:37:27.444Z,11.70
2018-12-03T00:39:55.625Z,11.70
2018-12-03T00:42:23.852Z,11.60
2018-12-03T00:44:52.025Z,11.60
2018-12-03T00:47:20.199Z,11.60
2018-12-03T00:49:48.376Z,11.60
2018-12-03T00:52:16.552Z,11.60
2018-12-03T00:54:44.736Z,11.60
2018-12-03T00:57:12.892Z,11.60
2018-12-03T00:59:41.075Z,11.60
2018-12-03T01:02:14.668Z,11.50
2018-12-03T01:04:42.846Z,11.50
2018-12-03T01:07:11.012Z,11.50
2018-12-03T01:09:39.188Z,11.50
2018-12-03T01:12:07.328Z,11.50
2018-12-03T01:14:35.509Z,11.50
2018-12-03T01:17:03.696Z,11.50
2018-12-03T01:19:31.876Z,11.50
2018-12-03T01:22:00.051Z,11.50
2018-12-03T01:24:28.206Z,11.50
2018-12-03T01:26:56.368Z,11.60
2018-12-03T01:29:24.561Z,11.60
2018-12-03T01:31:53.189Z,11.70
2018-12-03T01:34:21.343Z,11.90
2018-12-03T01:36:49.477Z,12.00
2018-12-03T01:39:17.622Z,12.00
2018-12-03T01:41:45.784Z,12.10
2018-12-03T01:44:13.928Z,12.10
2018-12-03T01:46:42.071Z,12.10
2018-12-03T01:49:10.227Z,12.10
2018-12-03T01:51:38.379Z,12.20
2018-12-03T01:54:06.548Z,12.20
2018-12-03T01:56:34.693Z,12.10
2018-12-03T01:59:02.832Z,12.10
2018-12-03T02:01:31.012Z,12.10
2018-12-03T02:03:59.180Z,12.10
2018-12-03T02:06:27.332Z,12.00
2018-12-03T02:08:55.492Z,12.00
2018-12-03T02:11:23.619Z,12.00
2018-12-03T02:13:51.753Z,12.00
2018-12-03T02:16:19.876Z,12.00
2018-12-03T02:18:48.021Z,12.10
2018-12-03T02:21:16.188Z,12.20
2018-12-03T02:23:44.335Z,12.30
2018-12-03T02:26:12.467Z,12.30
2018-12-03T02:28:40.636Z,12.40
2018-12-03T02:31:08.800Z,12.40
2018-12-03T02:33:36.936Z,12.40
2018-12-03T02:36:05.274Z,12.40
2018-12-03T02:38:33.462Z,12.40
2018-12-03T02:41:01.600Z,12.30
2018-12-03T02:43:29.736Z,12.30
2018-12-03T02:45:57.880Z,12.30
2018-12-03T02:48:26.027Z,12.20
2018-12-03T02:50:54.195Z,12.20
2018-12-03T02:53:22.365Z,12.20
2018-12-03T02:55:50.543Z,12.20
2018-12-03T02:58:18.712Z,12.20
2018-12-03T03:00:46.893Z,12.20
2018-12-03T03:03:15.061Z,12.20
2018-12-03T03:05:43.205Z,12.20
2018-12-03T03:08:11.376Z,12.20
2018-12-03T03:10:39.512Z,12.20
2018-12-03T03:13:07.655Z,12.20
2018-12-03T03:15:35.844Z,12.20
2018-12-03T03:18:03.970Z,12.30
2018-12-03T03:20:32.091Z,12.30
2018-12-03T03:23:00.217Z,12.30
2018-12-03T03:25:28.388Z,12.30
2018-12-03T03:27:56.560Z,12.30
2018-12-03T03:30:24.736Z,12.20
2018-12-03T03:32:52.963Z,12.20
2018-12-03T03:35:21.146Z,12.20
2018-12-03T03:37:49.303Z,12.10
2018-12-03T03:40:17.494Z,12.10
2018-12-03T03:42:47.549Z,12.20
2018-12-03T03:45:17.488Z,12.30
2018-12-03T03:47:45.750Z,12.40
2018-12-03T03:50:13.935Z,12.40
2018-12-03T03:52:42.092Z,12.40
2018-12-03T03:55:10.568Z,12.30
2018-12-03T03:57:38.771Z,12.30
2018-12-03T04:00:09.608Z,12.20
2018-12-03T04:02:37.818Z,12.20
2018-12-03T04:05:08.506Z,12.20
2018-12-03T04:07:36.698Z,12.20
2018-12-03T04:10:06.698Z,12.20
2018-12-03T04:12:34.873Z,12.20
2018-12-03T04:15:03.033Z,12.30
2018-12-03T04:17:31.177Z,12.30
2018-12-03T04:19:59.354Z,12.30
2018-12-03T04:22:27.500Z,12.30
2018-12-03T04:24:55.689Z,12.40
2018-12-03T04:27:23.856Z,12.30
2018-12-03T04:29:52.027Z,12.30
2018-12-03T04:32:20.194Z,12.30
2018-12-03T04:34:48.362Z,12.20
2018-12-03T04:37:16.495Z,12.20
2018-12-03T04:39:44.644Z,12.10
2018-12-03T04:42:12.778Z,12.00
2018-12-03T04:44:40.924Z,12.00
2018-12-03T04:47:09.056Z,12.00
2018-12-03T04:49:37.230Z,11.90
2018-12-03T04:52:06.267Z,11.90
2018-12-03T04:54:34.457Z,12.00
2018-12-03T04:57:02.666Z,12.00
2018-12-03T04:59:30.865Z,12.00
2018-12-03T05:01:59.089Z,12.00
2018-12-03T05:04:27.234Z,12.00
2018-12-03T05:06:55.361Z,12.10
2018-12-03T05:09:23.491Z,12.10
2018-12-03T05:11:51.617Z,12.20
2018-12-03T05:14:19.834Z,12.20
2018-12-03T05:16:48.052Z,12.00
2018-12-03T05:19:16.180Z,12.00
2018-12-03T05:21:44.331Z,12.00
2018-12-03T05:24:12.487Z,12.00
2018-12-03T05:26:40.625Z,12.00
2018-12-03T05:29:08.776Z,12.00
2018-12-03T05:31:36.956Z,12.00
2018-12-03T05:34:05.689Z,12.00
2018-12-03T05:36:33.861Z,11.90
2018-12-03T05:39:01.999Z,11.90
2018-12-03T05:41:30.143Z,11.80
2018-12-03T05:43:58.290Z,11.80
2018-12-03T05:46:26.449Z,11.70
2018-12-03T05:48:54.602Z,11.70
2018-12-03T05:51:22.749Z,11.70
2018-12-03T05:53:50.889Z,11.70
2018-12-03T05:56:19.055Z,11.70
2018-12-03T05:58:47.216Z,11.60
2018-12-03T06:01:15.379Z,11.60
2018-12-03T06:03:43.522Z,11.60
2018-12-03T06:06:11.712Z,11.60
2018-12-03T06:08:39.828Z,11.60
2018-12-03T06:11:07.957Z,11.60
2018-12-03T06:13:36.084Z,11.60
2018-12-03T06:16:04.262Z,11.60
2018-12-03T06:18:32.410Z,11.60
2018-12-03T06:21:00.552Z,11.60
2018-12-03T06:23:28.687Z,11.60
2018-12-03T06:25:56.851Z,11.70
2018-12-03T06:28:25.004Z,11.60
2018-12-03T06:30:53.176Z,11.60
2018-12-03T06:33:21.382Z,11.60
2018-12-03T06:35:49.525Z,11.60
2018-12-03T06:38:17.672Z,11.50
2018-12-03T06:40:45.832Z,11.50
2018-12-03T06:43:14.005Z,11.50
2018-12-03T06:45:42.169Z,11.50
2018-12-03T06:48:14.312Z,11.40
2018-12-03T06:50:42.441Z,11.50
2018-12-03T06:53:10.627Z,11.50
2018-12-03T06:55:38.806Z,11.50
2018-12-03T06:58:07.067Z,11.60
2018-12-03T07:00:35.245Z,11.60
2018-12-03T07:03:03.453Z,11.60
2018-12-03T07:05:31.627Z,11.60
2018-12-03T07:08:00.632Z,11.70
2018-12-03T07:10:28.810Z,11.70
2018-12-03T07:13:00.581Z,11.70
2018-12-03T07:15:30.684Z,11.80
2018-12-03T07:17:58.900Z,12.10
2018-12-03T07:20:27.061Z,12.20
2018-12-03T07:22:55.232Z,12.20
2018-12-03T07:25:23.384Z,12.20
2018-12-03T07:27:51.544Z,12.20
2018-12-03T07:30:21.525Z,12.20
2018-12-03T07:32:50.320Z,12.20
2018-12-03T07:35:19.365Z,12.20
2018-12-03T07:37:48.037Z,12.20
2018-12-03T07:40:16.200Z,12.20
2018-12-03T07:42:44.353Z,12.20
2018-12-03T07:45:16.755Z,12.20
2018-12-03T07:47:44.972Z,12.10
2018-12-03T07:50:16.416Z,12.10
2018-12-03T07:52:44.656Z,12.10
2018-12-03T07:55:15.669Z,12.10
2018-12-03T07:57:50.439Z,12.00
2018-12-03T08:00:20.362Z,12.00
2018-12-03T08:02:48.547Z,12.00
2018-12-03T08:05:16.692Z,12.00
2018-12-03T08:07:44.869Z,12.00
2018-12-03T08:10:15.494Z,12.10
2018-12-03T08:12:44.072Z,12.00
2018-12-03T08:15:19.718Z,12.10
2018-12-03T08:17:59.356Z,12.20
2018-12-03T08:20:36.054Z,12.30
2018-12-03T08:23:07.192Z,12.40
2018-12-03T08:25:35.384Z,12.40
2018-12-03T08:28:03.548Z,12.50
2018-12-03T08:30:31.725Z,12.70
2018-12-03T08:32:59.897Z,13.00
2018-12-03T08:35:28.059Z,13.20
2018-12-03T08:37:56.259Z,13.10
2018-12-03T08:40:25.464Z,13.20
2018-12-03T08:42:54.965Z,13.20
2018-12-03T08:45:24.104Z,13.40
2018-12-03T08:47:52.578Z,13.60
2018-12-03T08:50:25.073Z,13.70
2018-12-03T08:52:53.762Z,13.90
2018-12-03T08:55:21.921Z,14.30
2018-12-03T08:57:50.139Z,14.70
2018-12-03T09:00:23.804Z,15.10
2018-12-03T09:02:58.193Z,15.40
2018-12-03T09:05:28.892Z,15.50
2018-12-03T09:07:57.070Z,15.70
2018-12-03T09:10:25.208Z,15.90
2018-12-03T09:12:53.477Z,16.00
2018-12-03T09:15:21.655Z,16.00
2018-12-03T09:17:49.865Z,16.00
2018-12-03T09:20:18.032Z,16.00
2018-12-03T09:22:46.191Z,15.80
2018-12-03T09:25:24.823Z,15.50
2018-12-03T09:27:53.030Z,15.30
2018-12-03T09:30:21.205Z,15.40
2018-12-03T09:32:49.371Z,15.40
2018-12-03T09:35:17.524Z,15.40
2018-12-03T09:37:45.691Z,15.30
2018-12-03T09:40:16.656Z,15.30
2018-12-03T09:42:44.859Z,15.10
2018-12-03T09:45:17.279Z,15.10
2018-12-03T09:47:45.872Z,15.00
2018-12-03T09:50:17.092Z,15.00
2018-12-03T09:52:45.317Z,15.00
2018-12-03T09:55:15.015Z,15.10
2018-12-03T09:57:43.355Z,15.30
2018-12-03T10:00:16.245Z,15.40
2018-12-03T10:02:44.468Z,15.50
2018-12-03T10:05:13.506Z,15.80
2018-12-03T10:07:41.700Z,16.00
2018-12-03T10:10:14.436Z,16.10
2018-12-03T10:12:42.645Z,15.90
2018-12-03T10:15:13.380Z,15.70
2018-12-03T10:17:45.082Z,15.50
2018-12-03T10:20:13.272Z,15.30
2018-12-03T10:22:41.448Z,15.10
2018-12-03T10:25:13.645Z,15.00
2018-12-03T10:27:42.237Z,15.00
2018-12-03T10:30:19.552Z,15.00
2018-12-03T10:32:49.353Z,15.10
2018-12-03T10:35:17.681Z,14.90
2018-12-03T10:37:45.892Z,14.80
2018-12-03T10:40:15.579Z,14.80
2018-12-03T10:42:44.615Z,14.90
2018-12-03T10:45:25.998Z,14.90
2018-12-03T10:47:48.887Z,14.80
2018-12-03T10:50:22.277Z,14.90
2018-12-03T10:52:47.594Z,14.90
2018-12-03T10:55:15.774Z,14.90
2018-12-03T10:57:44.910Z,14.90
2018-12-03T11:00:23.134Z,15.00
2018-12-03T11:02:58.309Z,15.00
2018-12-03T11:05:33.504Z,14.90
2018-12-03T11:08:01.713Z,14.90
2018-12-03T11:10:33.098Z,14.90
2018-12-03T11:13:01.399Z,14.90
2018-12-03T11:15:29.638Z,14.90
2018-12-03T11:17:58.257Z,14.90
2018-12-03T11:20:26.477Z,14.90
2018-12-03T11:22:54.652Z,15.00
2018-12-03T11:25:32.699Z,15.00
2018-12-03T11:28:03.425Z,15.00
2018-12-03T11:30:31.873Z,15.00
2018-12-03T11:33:00.077Z,15.00
2018-12-03T11:35:30.297Z,15.00
2018-12-03T11:39:12.628Z,15.00
2018-12-03T11:41:40.784Z,15.00
2018-12-03T11:44:08.974Z,15.00
2018-12-03T11:46:37.153Z,14.90
2018-12-03T11:49:06.647Z,14.90
2018-12-03T11:51:34.928Z,14.90
2018-12-03T11:54:03.205Z,14.90
2018-12-03T11:56:31.374Z,14.90
2018-12-03T11:58:59.606Z,14.90
2018-12-03T12:01:27.835Z,14.90
2018-12-03T12:03:56.004Z,14.90
2018-12-03T12:06:24.177Z,14.80
2018-12-03T12:08:52.377Z,14.90
2018-12-03T12:11:20.543Z,14.90
2018-12-03T12:13:48.700Z,14.90
2018-12-03T12:16:16.925Z,14.90
2018-12-03T12:18:45.183Z,15.00
2018-12-03T12:21:13.341Z,15.10
2018-12-03T12:23:41.524Z,15.10
2018-12-03T12:26:09.999Z,15.10
2018-12-03T12:28:38.384Z,15.10
2018-12-03T12:31:06.479Z,15.10
2018-12-03T12:33:34.654Z,15.10
2018-12-03T12:36:02.824Z,15.10
2018-12-03T12:38:30.996Z,15.10
2018-12-03T12:40:59.185Z,15.10
2018-12-03T12:43:27.372Z,15.10
2018-12-03T12:45:58.530Z,15.10
2018-12-03T12:48:26.680Z,15.10
2018-12-03T12:50:54.833Z,15.10
2018-12-03T12:53:22.982Z,15.10
2018-12-03T12:55:51.172Z,15.10
2018-12-03T12:58:19.372Z,15.10
2018-12-03T13:00:47.525Z,15.10
2018-12-03T13:05:50.277Z,15.00
2018-12-03T13:08:18.444Z,15.00
2018-12-03T13:10:46.605Z,15.00
2018-12-03T13:13:14.809Z,15.00
2018-12-03T13:15:43.029Z,15.00
2018-12-03T13:18:11.184Z,15.00
2018-12-03T13:20:39.336Z,15.00
2018-12-03T13:23:07.723Z,15.00
2018-12-03T13:25:35.988Z,14.90
2018-12-03T13:28:04.137Z,14.90
2018-12-03T13:30:32.418Z,14.90
2018-12-03T13:33:00.551Z,14.90
2018-12-03T13:35:29.300Z,14.90
2018-12-03T13:37:56.832Z,14.90
2018-12-03T13:40:25.004Z,15.00
2018-12-03T13:42:53.148Z,14.90
2018-12-03T13:45:23.189Z,15.10
2018-12-03T13:47:52.101Z,15.40
2018-12-03T13:50:20.240Z,15.40
2018-12-03T13:52:48.390Z,15.20
2018-12-03T13:55:20.395Z,15.10
2018-12-03T13:57:48.528Z,15.00
2018-12-03T14:00:20.029Z,15.00
2018-12-03T14:03:22.389Z,15.00
2018-12-03T14:05:54.565Z,14.90
2018-12-03T14:08:33.086Z,14.90
2018-12-03T14:11:10.820Z,14.90
2018-12-03T14:14:00.120Z,14.80
2018-12-03T14:16:42.810Z,14.80
2018-12-03T14:19:14.613Z,14.70
2018-12-03T14:21:47.436Z,14.60
2018-12-03T14:24:19.579Z,14.50
2018-12-03T14:26:47.708Z,14.40
2018-12-03T14:29:15.848Z,14.20
2018-12-03T14:31:44.004Z,14.10
2018-12-03T14:34:19.919Z,13.90
2018-12-03T14:36:48.068Z,13.90
2018-12-03T14:39:16.209Z,13.80
2018-12-03T14:41:44.372Z,13.80
2018-12-03T14:44:12.532Z,13.80
2018-12-03T14:46:40.726Z,13.80
2018-12-03T14:49:08.872Z,13.70
2018-12-03T14:51:37.176Z,13.60
2018-12-03T14:54:05.319Z,13.60
2018-12-03T14:56:33.472Z,13.60
2018-12-03T14:59:01.632Z,13.50
2018-12-03T15:01:29.797Z,13.50
2018-12-03T15:03:57.933Z,13.40
2018-12-03T15:06:26.063Z,13.40
2018-12-03T15:08:54.253Z,13.40
2018-12-03T15:11:28.980Z,13.40
2018-12-03T15:13:57.112Z,13.30
2018-12-03T15:16:31.960Z,13.40
2018-12-03T15:19:00.088Z,13.30
2018-12-03T15:21:28.229Z,13.30
2018-12-03T15:23:56.371Z,13.30
2018-12-03T15:26:24.501Z,13.30
2018-12-03T15:28:52.651Z,13.30
2018-12-03T15:31:20.793Z,13.30
2018-12-03T15:33:48.953Z,13.40
2018-12-03T15:36:17.119Z,13.40
2018-12-03T15:38:45.269Z,13.50
2018-12-03T15:41:13.431Z,13.50
2018-12-03T15:43:42.324Z,13.50
2018-12-03T15:46:10.481Z,13.60
2018-12-03T15:48:38.636Z,13.60
2018-12-03T15:51:06.756Z,13.60
2018-12-03T15:53:34.880Z,13.50
2018-12-03T15:56:03.032Z,13.50
2018-12-03T15:58:31.178Z,13.40
2018-12-03T16:00:59.324Z,13.40
2018-12-03T16:03:27.469Z,13.50
2018-12-03T16:05:55.595Z,13.40
2018-12-03T16:08:23.749Z,13.40
2018-12-03T16:10:51.904Z,13.40
2018-12-03T16:13:20.064Z,13.40
2018-12-03T16:15:48.216Z,13.30
2018-12-03T16:18:16.388Z,13.30
2018-12-03T16:20:44.700Z,13.30
2018-12-03T16:23:12.840Z,13.40
2018-12-03T16:25:41.045Z,13.30
2018-12-03T16:28:09.214Z,13.30
2018-12-03T16:30:37.356Z,13.20
2018-12-03T16:33:05.500Z,13.20
2018-12-03T16:35:34.879Z,13.10
2018-12-03T16:38:03.028Z,13.10
2018-12-03T16:40:31.175Z,13.10
2018-12-03T16:42:59.332Z,13.10
2018-12-03T16:45:27.477Z,13.10
2018-12-03T16:47:55.659Z,13.10
2018-12-03T16:50:23.815Z,13.10
2018-12-03T16:52:51.941Z,13.10
2018-12-03T16:55:20.169Z,13.10
2018-12-03T16:57:48.308Z,13.10
2018-12-03T17:00:16.471Z,13.10
2018-12-03T17:02:44.644Z,13.10
2018-12-03T17:05:50.729Z,13.10
2018-12-03T17:08:18.972Z,13.00
2018-12-03T17:10:47.200Z,13.10
2018-12-03T17:13:15.552Z,13.00
2018-12-03T17:15:43.808Z,13.10
2018-12-03T17:18:12.125Z,13.10
2018-12-03T17:21:21.181Z,13.10
2018-12-03T17:23:56.082Z,13.10
2018-12-03T17:26:24.326Z,13.10
2018-12-03T17:28:52.544Z,13.10
2018-12-03T17:31:20.784Z,13.00
2018-12-03T17:33:49.037Z,13.00
2018-12-03T17:36:17.419Z,13.00
2018-12-03T17:38:45.624Z,13.00
2018-12-03T17:41:13.854Z,12.90
2018-12-03T17:43:42.089Z,13.00
2018-12-03T17:46:10.296Z,13.00
2018-12-03T17:48:38.589Z,13.00
2018-12-03T17:51:06.988Z,13.00
2018-12-03T17:53:35.276Z,13.10
2018-12-03T17:56:03.427Z,13.10
2018-12-03T17:58:31.640Z,13.20
2018-12-03T18:00:59.872Z,13.20
2018-12-03T18:03:28.008Z,13.20
2018-12-03T18:05:56.140Z,13.30
2018-12-03T18:08:24.364Z,13.40
2018-12-03T18:10:52.531Z,13.40
2018-12-03T18:13:20.744Z,13.40
2018-12-03T18:15:48.972Z,13.30
2018-12-03T18:18:17.113Z,13.30
2018-12-03T18:20:45.255Z,13.30
2018-12-03T18:23:13.477Z,13.20
2018-12-03T18:25:41.777Z,13.20
2018-12-03T18:28:09.923Z,13.10
2018-12-03T18:30:38.129Z,13.10
2018-12-03T18:33:06.367Z,13.00
2018-12-03T18:35:34.627Z,12.90
2018-12-03T18:38:02.821Z,12.80
2018-12-03T18:40:31.061Z,12.50
2018-12-03T18:45:27.165Z,12.40
2018-12-03T18:47:55.298Z,12.30
2018-12-03T18:50:29.124Z,12.10
2018-12-03T18:52:57.322Z,12.10
2018-12-03T18:55:25.580Z,12.10
2018-12-03T18:57:58.209Z,12.00
2018-12-03T19:00:26.370Z,12.00
2018-12-03T19:02:54.518Z,12.00
2018-12-03T19:05:22.707Z,12.10
2018-12-03T19:07:50.878Z,12.10
2018-12-03T19:10:19.447Z,12.00
2018-12-03T19:12:47.624Z,12.00
2018-12-03T19:15:15.891Z,12.00
2018-12-03T19:17:44.148Z,11.90
2018-12-03T19:20:12.299Z,11.90
2018-12-03T19:22:40.515Z,11.90
2018-12-03T19:25:08.692Z,12.00
2018-12-03T19:27:36.960Z,12.00
2018-12-03T19:30:08.532Z,12.10
2018-12-03T19:32:36.714Z,12.00
2018-12-03T19:35:05.493Z,12.00
2018-12-03T19:37:33.754Z,12.00
2018-12-03T19:40:01.903Z,12.00
2018-12-03T19:42:30.068Z,12.00
2018-12-03T19:44:58.246Z,12.00
2018-12-03T19:47:26.436Z,12.00
2018-12-03T19:49:54.860Z,12.00
2018-12-03T19:52:23.110Z,12.00
2018-12-03T19:54:53.623Z,11.90
2018-12-03T19:57:25.112Z,11.90
2018-12-03T20:00:00.689Z,11.90
2018-12-03T20:02:24.921Z,11.90
2018-12-03T20:04:53.725Z,11.90
2018-12-03T20:07:22.003Z,11.90
2018-12-03T20:09:53.935Z,11.90
2018-12-03T20:12:22.194Z,11.90
2018-12-03T20:14:50.474Z,11.90
2018-12-03T20:17:24.504Z,11.90
2018-12-03T20:19:52.663Z,12.00
2018-12-03T20:22:21.687Z,12.00
2018-12-03T20:24:49.965Z,11.90
2018-12-03T20:27:50.506Z,11.90
2018-12-03T20:30:29.282Z,11.90
2018-12-03T20:33:05.250Z,11.80
2018-12-03T20:35:41.152Z,11.80
2018-12-03T20:38:15.227Z,11.80
2018-12-03T20:40:59.293Z,11.70
2018-12-03T20:43:29.500Z,11.70
2018-12-03T20:46:10.912Z,11.70
2018-12-03T20:49:28.648Z,11.70
2018-12-03T20:52:03.745Z,11.70
2018-12-03T20:54:32.074Z,11.70
2018-12-03T20:57:00.384Z,11.60
2018-12-03T20:59:28.669Z,11.60
2018-12-03T21:01:56.859Z,11.60
2018-12-03T21:04:25.096Z,11.50
2018-12-03T21:06:53.334Z,11.50
2018-12-03T21:09:21.522Z,11.50
2018-12-03T21:11:50.371Z,11.40
2018-12-03T21:14:20.267Z,11.40
2018-12-03T21:16:48.651Z,11.40
2018-12-03T21:19:16.949Z,11.30
2018-12-03T21:21:45.117Z,11.30
2018-12-03T21:24:20.100Z,11.20
2018-12-03T21:26:48.268Z,11.20
2018-12-03T21:29:16.545Z,11.10
2018-12-03T21:31:44.677Z,11.10
2018-12-03T21:34:12.912Z,11.10
2018-12-03T21:36:41.058Z,11.10
2018-12-03T21:39:09.205Z,11.20
2018-12-03T21:41:37.564Z,11.20
2018-12-03T21:44:05.815Z,11.20
2018-12-03T21:46:34.092Z,11.20
2018-12-03T21:49:02.340Z,11.20
2018-12-03T21:51:30.478Z,11.30
2018-12-03T21:53:58.618Z,11.40
2018-12-03T21:56:26.763Z,11.50
2018-12-03T21:58:54.962Z,11.50
2018-12-03T22:01:23.122Z,11.50
2018-12-03T22:03:51.321Z,11.40
2018-12-03T22:06:19.567Z,11.40
2018-12-03T22:08:47.827Z,11.30
2018-12-03T22:11:16.066Z,11.30
2018-12-03T22:13:44.304Z,11.30
2018-12-03T22:16:12.530Z,11.30
2018-12-03T22:18:40.648Z,11.30
2018-12-03T22:21:08.793Z,11.40
2018-12-03T22:23:36.924Z,11.30
2018-12-03T22:26:05.097Z,11.40
2018-12-03T22:28:33.291Z,11.40
2018-12-03T22:31:01.431Z,11.40
2018-12-03T22:33:29.599Z,11.40
2018-12-03T22:35:57.796Z,11.40
2018-12-03T22:38:25.959Z,11.40
2018-12-03T22:40:54.175Z,11.40
2018-12-03T22:43:22.365Z,11.40
2018-12-03T22:45:50.520Z,11.40
2018-12-03T22:48:18.694Z,11.40
2018-12-03T22:50:46.944Z,11.40
2018-12-03T22:53:16.114Z,11.40
2018-12-03T22:55:44.413Z,11.40
2018-12-03T22:58:12.581Z,11.40
2018-12-03T23:00:40.888Z,11.40
2018-12-03T23:03:09.048Z,11.40
2018-12-03T23:05:37.272Z,11.30
2018-12-03T23:08:05.540Z,11.30
2018-12-03T23:10:33.898Z,11.30
2018-12-03T23:13:02.382Z,11.30
2018-12-03T23:15:30.563Z,11.30
2018-12-03T23:17:58.816Z,11.30
2018-12-03T23:20:26.996Z,11.20
2018-12-03T23:22:55.272Z,11.20
2018-12-03T23:25:23.605Z,11.30
2018-12-03T23:27:51.788Z,11.30
2018-12-03T23:30:20.061Z,11.30
2018-12-03T23:32:48.253Z,11.30
2018-12-03T23:35:16.508Z,11.40
2018-12-03T23:37:44.748Z,11.40
2018-12-03T23:40:13.142Z,11.40
2018-12-03T23:42:41.408Z,11.40
2018-12-03T23:45:09.611Z,11.30
2018-12-03T23:47:37.769Z,11.20
2018-12-03T23:50:06.540Z,11.20
2018-12-03T23:52:34.743Z,11.20
2018-12-03T23:55:02.991Z,11.10
2018-12-03T23:57:31.152Z,11.00
2018-12-03T23:59:59.323Z,10.90
